SHT22A EGLL-EGJB
Flight info
| Callsign | SHT22A |
|---|---|
| Flight time | 0h 36m |
| Altitude | 18000 |
| Route | GASGU N514 EVTES N621 SAM N63 LELNA |
| Aircraft | A20N/M-SDE2E3FGHIRWXY/LB1 |
Departure
| Time | 2026-05-07 19:43 |
|---|---|
| Airport | London Heathrow Airport (EGLL) |
Arrival
| Time | 2026-05-07 20:19 |
|---|---|
| Airport | Guernsey Airport (EGJB) |
| Time | Latitude | Longitude | Altitude | Speed | Heading |
|---|---|---|---|---|---|
| 2026-05-07 19:03 | 51.47188 | -0.48589 | 86 ft | 0 kts | 269° |
| 2026-05-07 19:30 | 51.47188 | -0.48563 | 87 ft | 4 kts | 269° |
| 2026-05-07 19:31 | 51.47188 | -0.48527 | 86 ft | 3 kts | 269° |
| 2026-05-07 19:31 | 51.47193 | -0.48488 | 87 ft | 4 kts | 227° |
| 2026-05-07 19:31 | 51.47213 | -0.48473 | 89 ft | 4 kts | 179° |
| 2026-05-07 19:31 | 51.47227 | -0.48473 | 86 ft | 0 kts | 179° |
| 2026-05-07 19:35 | 51.47223 | -0.48473 | 86 ft | 2 kts | 179° |
| 2026-05-07 19:35 | 51.47184 | -0.48473 | 89 ft | 9 kts | 180° |
| 2026-05-07 19:35 | 51.47093 | -0.48472 | 89 ft | 16 kts | 180° |
| 2026-05-07 19:35 | 51.47001 | -0.48470 | 87 ft | 11 kts | 180° |
| 2026-05-07 19:36 | 51.46915 | -0.48469 | 89 ft | 14 kts | 179° |
| 2026-05-07 19:36 | 51.46847 | -0.48469 | 86 ft | 8 kts | 179° |
| 2026-05-07 19:36 | 51.46824 | -0.48469 | 86 ft | 2 kts | 180° |
| 2026-05-07 19:36 | 51.46823 | -0.48469 | 86 ft | 0 kts | 180° |
| 2026-05-07 19:37 | 51.46816 | -0.48469 | 86 ft | 3 kts | 180° |
| 2026-05-07 19:37 | 51.46765 | -0.48469 | 86 ft | 11 kts | 180° |
| 2026-05-07 19:37 | 51.46680 | -0.48468 | 86 ft | 11 kts | 180° |
| 2026-05-07 19:38 | 51.46629 | -0.48467 | 86 ft | 7 kts | 179° |
| 2026-05-07 19:38 | 51.46603 | -0.48467 | 87 ft | 1 kts | 180° |
| 2026-05-07 19:38 | 51.46593 | -0.48467 | 86 ft | 0 kts | 180° |
| 2026-05-07 19:40 | 51.46592 | -0.48467 | 86 ft | 1 kts | 180° |
| 2026-05-07 19:40 | 51.46569 | -0.48467 | 86 ft | 6 kts | 180° |
| 2026-05-07 19:41 | 51.46508 | -0.48468 | 86 ft | 12 kts | 180° |
| 2026-05-07 19:41 | 51.46479 | -0.48431 | 89 ft | 1 kts | 98° |
| 2026-05-07 19:41 | 51.46479 | -0.48420 | 89 ft | 0 kts | 90° |
| 2026-05-07 19:42 | 51.46479 | -0.48418 | 89 ft | 1 kts | 90° |
| 2026-05-07 19:42 | 51.46479 | -0.48282 | 88 ft | 38 kts | 89° |
| 2026-05-07 19:43 | 51.46482 | -0.47471 | 85 ft | 104 kts | 90° |
| 2026-05-07 19:43 | 51.46487 | -0.46043 | 88 ft | 150 kts | 89° |
| 2026-05-07 19:43 | 51.46498 | -0.44337 | 511 ft | 156 kts | 90° |
| 2026-05-07 19:43 | 51.46529 | -0.42510 | 942 ft | 173 kts | 88° |
| 2026-05-07 19:44 | 51.46349 | -0.40505 | 1265 ft | 193 kts | 114° |
| 2026-05-07 19:44 | 51.45903 | -0.39238 | 1510 ft | 202 kts | 124° |
| 2026-05-07 19:44 | 51.45010 | -0.37368 | 1822 ft | 222 kts | 129° |
| 2026-05-07 19:44 | 51.43654 | -0.34694 | 2336 ft | 247 kts | 132° |
| 2026-05-07 19:45 | 51.42733 | -0.33519 | 2856 ft | 252 kts | 151° |
| 2026-05-07 19:45 | 51.41030 | -0.32811 | 3766 ft | 260 kts | 178° |
| 2026-05-07 19:45 | 51.39237 | -0.33332 | 4787 ft | 268 kts | 197° |
| 2026-05-07 19:45 | 51.37551 | -0.34668 | 4951 ft | 269 kts | 212° |
| 2026-05-07 19:46 | 51.36068 | -0.36482 | 5056 ft | 268 kts | 220° |
| 2026-05-07 19:46 | 51.34674 | -0.38481 | 5168 ft | 270 kts | 222° |
| 2026-05-07 19:46 | 51.33299 | -0.40536 | 5284 ft | 270 kts | 222° |
| 2026-05-07 19:46 | 51.32060 | -0.42462 | 5390 ft | 271 kts | 227° |
| 2026-05-07 19:47 | 51.30945 | -0.44904 | 5504 ft | 272 kts | 241° |
| 2026-05-07 19:47 | 51.30141 | -0.47647 | 5621 ft | 273 kts | 250° |
| 2026-05-07 19:47 | 51.29524 | -0.50509 | 5728 ft | 272 kts | 253° |
| 2026-05-07 19:47 | 51.28984 | -0.53417 | 5917 ft | 276 kts | 255° |
| 2026-05-07 19:48 | 51.28458 | -0.56374 | 6798 ft | 273 kts | 255° |
| 2026-05-07 19:48 | 51.27937 | -0.59232 | 8054 ft | 268 kts | 254° |
| 2026-05-07 19:48 | 51.27383 | -0.62103 | 9083 ft | 270 kts | 253° |
| 2026-05-07 19:48 | 51.26818 | -0.64962 | 10137 ft | 271 kts | 253° |
| 2026-05-07 19:49 | 51.26234 | -0.67916 | 10738 ft | 290 kts | 253° |
| 2026-05-07 19:49 | 51.25607 | -0.71101 | 11076 ft | 314 kts | 253° |
| 2026-05-07 19:49 | 51.24937 | -0.74520 | 11606 ft | 328 kts | 252° |
| 2026-05-07 19:49 | 51.24251 | -0.78023 | 12441 ft | 333 kts | 252° |
| 2026-05-07 19:50 | 51.23553 | -0.81583 | 13266 ft | 339 kts | 252° |
| 2026-05-07 19:50 | 51.22861 | -0.85100 | 14047 ft | 344 kts | 252° |
| 2026-05-07 19:50 | 51.22140 | -0.88752 | 14824 ft | 347 kts | 252° |
| 2026-05-07 19:50 | 51.21395 | -0.92429 | 15607 ft | 350 kts | 249° |
| 2026-05-07 19:51 | 51.20408 | -0.95983 | 16372 ft | 352 kts | 241° |
| 2026-05-07 19:51 | 51.19108 | -0.99310 | 17141 ft | 355 kts | 234° |
| 2026-05-07 19:51 | 51.17577 | -1.02440 | 17577 ft | 360 kts | 232° |
| 2026-05-07 19:51 | 51.16035 | -1.05572 | 17693 ft | 359 kts | 232° |
| 2026-05-07 19:52 | 51.14498 | -1.08709 | 17811 ft | 360 kts | 232° |
| 2026-05-07 19:52 | 51.12959 | -1.11859 | 17924 ft | 360 kts | 232° |
| 2026-05-07 19:52 | 51.11421 | -1.15006 | 18037 ft | 361 kts | 232° |
| 2026-05-07 19:52 | 51.09894 | -1.18117 | 18048 ft | 361 kts | 231° |
| 2026-05-07 19:53 | 51.08186 | -1.21041 | 18050 ft | 361 kts | 223° |
| 2026-05-07 19:53 | 51.06247 | -1.23581 | 18048 ft | 361 kts | 216° |
| 2026-05-07 19:53 | 51.04144 | -1.25759 | 18049 ft | 362 kts | 213° |
| 2026-05-07 19:53 | 51.02023 | -1.27902 | 18047 ft | 361 kts | 213° |
| 2026-05-07 19:54 | 50.99903 | -1.30057 | 18046 ft | 362 kts | 213° |
| 2026-05-07 19:54 | 50.97788 | -1.32211 | 18048 ft | 361 kts | 213° |
| 2026-05-07 19:54 | 50.95663 | -1.34350 | 18047 ft | 362 kts | 211° |
| 2026-05-07 19:54 | 50.93429 | -1.36210 | 18048 ft | 362 kts | 207° |
| 2026-05-07 19:55 | 50.91181 | -1.37995 | 18047 ft | 362 kts | 207° |
| 2026-05-07 19:55 | 50.88927 | -1.39790 | 18048 ft | 362 kts | 207° |
| 2026-05-07 19:55 | 50.86678 | -1.41583 | 18046 ft | 362 kts | 207° |
| 2026-05-07 19:55 | 50.84434 | -1.43371 | 18047 ft | 361 kts | 207° |
| 2026-05-07 19:56 | 50.82247 | -1.45112 | 18045 ft | 361 kts | 207° |
| 2026-05-07 19:56 | 50.79995 | -1.46904 | 18045 ft | 361 kts | 207° |
| 2026-05-07 19:56 | 50.77754 | -1.48684 | 18044 ft | 361 kts | 207° |
| 2026-05-07 19:56 | 50.75506 | -1.50469 | 18042 ft | 361 kts | 207° |
| 2026-05-07 19:57 | 50.73256 | -1.52252 | 18042 ft | 361 kts | 207° |
| 2026-05-07 19:57 | 50.71010 | -1.54031 | 18042 ft | 361 kts | 207° |
| 2026-05-07 19:57 | 50.68761 | -1.55809 | 18043 ft | 361 kts | 207° |
| 2026-05-07 19:57 | 50.66530 | -1.57572 | 18043 ft | 361 kts | 207° |
| 2026-05-07 19:58 | 50.64284 | -1.59345 | 18042 ft | 361 kts | 207° |
| 2026-05-07 19:58 | 50.62038 | -1.61116 | 18034 ft | 361 kts | 207° |
| 2026-05-07 19:58 | 50.59795 | -1.62884 | 18034 ft | 361 kts | 207° |
| 2026-05-07 19:58 | 50.57546 | -1.64654 | 18034 ft | 361 kts | 207° |
| 2026-05-07 19:59 | 50.55300 | -1.66420 | 18035 ft | 361 kts | 207° |
| 2026-05-07 19:59 | 50.53058 | -1.68179 | 18035 ft | 361 kts | 207° |
| 2026-05-07 19:59 | 50.50810 | -1.69943 | 18034 ft | 361 kts | 207° |
| 2026-05-07 19:59 | 50.48563 | -1.71703 | 18035 ft | 361 kts | 207° |
| 2026-05-07 20:00 | 50.46326 | -1.73454 | 18035 ft | 360 kts | 207° |
| 2026-05-07 20:00 | 50.44071 | -1.75217 | 18037 ft | 360 kts | 207° |
| 2026-05-07 20:00 | 50.41832 | -1.76967 | 18037 ft | 361 kts | 207° |
| 2026-05-07 20:00 | 50.39581 | -1.78723 | 18036 ft | 360 kts | 207° |
| 2026-05-07 20:01 | 50.37331 | -1.80476 | 18038 ft | 361 kts | 207° |
| 2026-05-07 20:01 | 50.35088 | -1.82223 | 18036 ft | 361 kts | 207° |
| 2026-05-07 20:01 | 50.32864 | -1.83953 | 18037 ft | 361 kts | 207° |
| 2026-05-07 20:01 | 50.30620 | -1.85696 | 18032 ft | 359 kts | 207° |
| 2026-05-07 20:02 | 50.28381 | -1.87433 | 18032 ft | 359 kts | 207° |
| 2026-05-07 20:02 | 50.26137 | -1.89173 | 18032 ft | 359 kts | 207° |
| 2026-05-07 20:02 | 50.23896 | -1.90909 | 18031 ft | 359 kts | 207° |
| 2026-05-07 20:02 | 50.21658 | -1.92640 | 18032 ft | 359 kts | 207° |
| 2026-05-07 20:03 | 50.19414 | -1.94375 | 18031 ft | 359 kts | 207° |
| 2026-05-07 20:03 | 50.17168 | -1.96109 | 18026 ft | 359 kts | 207° |
| 2026-05-07 20:03 | 50.14931 | -1.97834 | 18032 ft | 358 kts | 207° |
| 2026-05-07 20:03 | 50.12697 | -1.99555 | 18031 ft | 358 kts | 207° |
| 2026-05-07 20:04 | 50.10457 | -2.01279 | 18029 ft | 357 kts | 207° |
| 2026-05-07 20:04 | 50.08226 | -2.02994 | 18030 ft | 359 kts | 207° |
| 2026-05-07 20:04 | 50.05990 | -2.04712 | 18029 ft | 359 kts | 207° |
| 2026-05-07 20:04 | 50.03817 | -2.06379 | 18028 ft | 358 kts | 207° |
| 2026-05-07 20:05 | 50.01578 | -2.08095 | 18029 ft | 358 kts | 207° |
| 2026-05-07 20:05 | 49.99400 | -2.09974 | 18029 ft | 358 kts | 214° |
| 2026-05-07 20:05 | 49.97421 | -2.12321 | 18029 ft | 359 kts | 222° |
| 2026-05-07 20:05 | 49.95672 | -2.15086 | 17926 ft | 358 kts | 228° |
| 2026-05-07 20:06 | 49.94031 | -2.17994 | 17531 ft | 358 kts | 228° |
| 2026-05-07 20:06 | 49.92379 | -2.20876 | 17095 ft | 355 kts | 226° |
| 2026-05-07 20:06 | 49.90686 | -2.23607 | 16640 ft | 352 kts | 225° |
| 2026-05-07 20:06 | 49.88984 | -2.26325 | 16151 ft | 349 kts | 225° |
| 2026-05-07 20:07 | 49.87305 | -2.29010 | 15680 ft | 344 kts | 225° |
| 2026-05-07 20:07 | 49.85646 | -2.31666 | 15203 ft | 341 kts | 225° |
| 2026-05-07 20:07 | 49.84010 | -2.34283 | 14735 ft | 336 kts | 225° |
| 2026-05-07 20:07 | 49.82407 | -2.36852 | 14262 ft | 325 kts | 225° |
| 2026-05-07 20:08 | 49.80869 | -2.39321 | 13838 ft | 314 kts | 225° |
| 2026-05-07 20:08 | 49.79378 | -2.41714 | 13380 ft | 303 kts | 225° |
| 2026-05-07 20:08 | 49.77955 | -2.43995 | 12932 ft | 294 kts | 225° |
| 2026-05-07 20:08 | 49.76561 | -2.46241 | 12483 ft | 285 kts | 225° |
| 2026-05-07 20:09 | 49.75199 | -2.48445 | 12052 ft | 282 kts | 225° |
| 2026-05-07 20:09 | 49.73842 | -2.50644 | 11616 ft | 282 kts | 225° |
| 2026-05-07 20:09 | 49.72490 | -2.52836 | 11180 ft | 281 kts | 225° |
| 2026-05-07 20:10 | 49.69802 | -2.57195 | 10341 ft | 279 kts | 225° |
| 2026-05-07 20:10 | 49.68468 | -2.59372 | 9922 ft | 278 kts | 225° |
| 2026-05-07 20:10 | 49.67149 | -2.61528 | 9473 ft | 277 kts | 225° |
| 2026-05-07 20:10 | 49.65827 | -2.63694 | 9009 ft | 276 kts | 225° |
| 2026-05-07 20:11 | 49.64514 | -2.65849 | 8574 ft | 275 kts | 225° |
| 2026-05-07 20:11 | 49.63207 | -2.67997 | 8134 ft | 274 kts | 225° |
| 2026-05-07 20:11 | 49.61904 | -2.70143 | 7709 ft | 273 kts | 225° |
| 2026-05-07 20:11 | 49.60622 | -2.72264 | 7270 ft | 267 kts | 225° |
| 2026-05-07 20:12 | 49.59390 | -2.74301 | 6852 ft | 259 kts | 225° |
| 2026-05-07 20:12 | 49.58160 | -2.76335 | 6442 ft | 252 kts | 225° |
| 2026-05-07 20:12 | 49.57001 | -2.78255 | 6079 ft | 244 kts | 225° |
| 2026-05-07 20:12 | 49.55862 | -2.80146 | 5714 ft | 236 kts | 225° |
| 2026-05-07 20:13 | 49.54768 | -2.81967 | 5344 ft | 231 kts | 225° |
| 2026-05-07 20:13 | 49.53676 | -2.83780 | 4989 ft | 229 kts | 225° |
| 2026-05-07 20:13 | 49.52615 | -2.85552 | 4627 ft | 221 kts | 225° |
| 2026-05-07 20:13 | 49.51460 | -2.87023 | 4250 ft | 211 kts | 201° |
| 2026-05-07 20:14 | 49.50053 | -2.87395 | 3901 ft | 203 kts | 180° |
| 2026-05-07 20:14 | 49.48654 | -2.87444 | 3537 ft | 199 kts | 180° |
| 2026-05-07 20:14 | 49.47271 | -2.87462 | 3203 ft | 200 kts | 180° |
| 2026-05-07 20:14 | 49.45908 | -2.87474 | 3083 ft | 190 kts | 180° |
| 2026-05-07 20:15 | 49.44651 | -2.87444 | 3019 ft | 175 kts | 172° |
| 2026-05-07 20:15 | 49.43554 | -2.86631 | 2946 ft | 180 kts | 135° |
| 2026-05-07 20:15 | 49.42983 | -2.84920 | 2869 ft | 184 kts | 106° |
| 2026-05-07 20:15 | 49.42860 | -2.82960 | 2794 ft | 184 kts | 93° |
| 2026-05-07 20:16 | 49.42910 | -2.81100 | 2728 ft | 184 kts | 90° |
| 2026-05-07 20:16 | 49.42968 | -2.79207 | 2586 ft | 171 kts | 91° |
| 2026-05-07 20:16 | 49.43019 | -2.77405 | 2404 ft | 167 kts | 91° |
| 2026-05-07 20:16 | 49.43067 | -2.75648 | 2204 ft | 160 kts | 92° |
| 2026-05-07 20:17 | 49.43112 | -2.73977 | 1996 ft | 160 kts | 92° |
| 2026-05-07 20:17 | 49.43160 | -2.72287 | 1778 ft | 156 kts | 92° |
| 2026-05-07 20:17 | 49.43205 | -2.70638 | 1566 ft | 154 kts | 91° |
| 2026-05-07 20:17 | 49.43250 | -2.69078 | 1357 ft | 137 kts | 92° |
| 2026-05-07 20:18 | 49.43288 | -2.67681 | 1173 ft | 128 kts | 92° |
| 2026-05-07 20:18 | 49.43325 | -2.66348 | 966 ft | 123 kts | 90° |
| 2026-05-07 20:18 | 49.43365 | -2.65062 | 763 ft | 121 kts | 88° |
| 2026-05-07 20:18 | 49.43397 | -2.63773 | 636 ft | 119 kts | 87° |
| 2026-05-07 20:19 | 49.43433 | -2.62528 | 471 ft | 115 kts | 88° |
| 2026-05-07 20:19 | 49.43466 | -2.61309 | 332 ft | 115 kts | 88° |
| 2026-05-07 20:19 | 49.43496 | -2.60272 | 311 ft | 61 kts | 88° |
| 2026-05-07 20:19 | 49.43506 | -2.59892 | 322 ft | 28 kts | 87° |
| 2026-05-07 20:20 | 49.43513 | -2.59609 | 330 ft | 25 kts | 88° |
| 2026-05-07 20:20 | 49.43521 | -2.59358 | 335 ft | 20 kts | 88° |
| 2026-05-07 20:20 | 49.43516 | -2.59227 | 334 ft | 7 kts | 121° |
| 2026-05-07 20:20 | 49.43467 | -2.59198 | 334 ft | 9 kts | 177° |
| 2026-05-07 20:21 | 49.43426 | -2.59198 | 331 ft | 3 kts | 180° |
| 2026-05-07 20:21 | 49.43394 | -2.59208 | 332 ft | 6 kts | 207° |
| 2026-05-07 20:21 | 49.43373 | -2.59270 | 333 ft | 9 kts | 262° |
| 2026-05-07 20:21 | 49.43368 | -2.59392 | 333 ft | 14 kts | 268° |
| 2026-05-07 20:22 | 49.43364 | -2.59533 | 328 ft | 15 kts | 267° |
| 2026-05-07 20:22 | 49.43361 | -2.59649 | 329 ft | 8 kts | 268° |
| 2026-05-07 20:22 | 49.43347 | -2.59685 | 327 ft | 5 kts | 207° |
| 2026-05-07 20:22 | 49.43305 | -2.59687 | 328 ft | 6 kts | 178° |
| 2026-05-07 20:23 | 49.43275 | -2.59685 | 328 ft | 3 kts | 178° |
| 2026-05-07 20:23 | 49.43259 | -2.59684 | 328 ft | 2 kts | 178° |
| 2026-05-07 20:23 | 49.43257 | -2.59684 | 328 ft | 0 kts | 178° |